Oriana — ZCDU9 — position and weather

sailwx.info

Track history (hours):
 
Tides and Currents Weather Stations Pressure Air Temp Water Temp Dewpoint Dewpoint Depression Visibility Wind Speed Wind Dir Waves Ship Positions

Oriana (Bermuda)

Last reported at 2014-Oct-21 17:07 UTC. Time now 2014-Oct-22 13:47 UTC.
Position N 42°08' W 009°49'.

Length 261 m; beam 32.2 m; draft 8.2 m.

Type: Ship. MMSI: 310529000.

Date/timePositionNaut miles runAvg speedWind from/ knotsBaromVisibWave heightAir tempDewpointWater temp
2014-Oct-21 17:07N 42°08' W 009°49'15618.0
2014-Oct-21 08:29N 39°32' W 009°51'1617.2
2014-Oct-21 07:32N 39°16' W 009°51'1716.8
2014-Oct-21 06:33N 38°59' W 009°51'1717.1
2014-Oct-21 05:33N 38°42' W 009°52'1817.8
2014-Oct-21 04:32N 38°25' W 009°48'1818.1
2014-Oct-21 03:33N 38°07' W 009°43'1817.7
2014-Oct-21 02:33N 37°50' W 009°37'1817.7
2014-Oct-21 01:33N 37°33' W 009°31'1818.0
2014-Oct-21 00:33N 37°16' W 009°25'1717.4
2014-Oct-20 23:33N 36°59' W 009°20'3215.9
2014-Oct-20 21:33N 36°40' W 008°48'3617.3
2014-Oct-20 19:28N 36°28' W 008°06'1617.9
2014-Oct-20 18:34N 36°22' W 007°47'1818.2
2014-Oct-20 17:34N 36°16' W 007°25'2318.1
2014-Oct-20 16:18N 36°08' W 006°59'1317.7
2014-Oct-20 15:33N 36°04' W 006°43'1817.7
2014-Oct-20 14:34N 35°59' W 006°22'3717.4
2014-Oct-20 12:25N 35°58' W 005°36'1416.4
2014-Oct-20 11:34N 36°06' W 005°23'2 2.3
2014-Oct-20 10:30N 36°09' W 005°22'0 0.0
2014-Oct-20 09:30N 36°09' W 005°22'0 0.0
2014-Oct-20 07:33N 36°09' W 005°22'0 0.0
2014-Oct-20 06:33N 36°09' W 005°22'0 0.0
2014-Oct-20 05:33N 36°09' W 005°22'2 2.5
2014-Oct-20 04:34N 36°06' W 005°22'15016.5
2014-Oct-19 19:28N 36°26' W 002°18'1516.1
2014-Oct-19 18:33N 36°34' W 002°03'2417.1
2014-Oct-19 17:08N 36°53' W 001°43'1017.1
2014-Oct-19 16:34N 37°00' W 001°35'3917.4
2014-Oct-19 14:18N 37°30' W 001°03'6 0.7
2014-Oct-19 05:18N 37°36' W 000°59'7 6.9
2014-Oct-19 04:15N 37°32' W 000°51'1217.0
2014-Oct-19 03:34N 37°33' W 000°36'1717.1
2014-Oct-19 02:33N 37°42' W 000°18'1716.7
2014-Oct-19 01:32N 37°51' E 000°01'1616.3
2014-Oct-19 00:33N 37°58' E 000°19'1616.2
2014-Oct-18 23:33N 38°05' E 000°37'1716.1
2014-Oct-18 22:29N 38°13' E 000°56'1516.0
2014-Oct-18 21:32N 38°20' E 001°14'2016.7
2014-Oct-18 20:21N 38°31' E 001°35'1915.8
2014-Oct-18 19:08N 38°44' E 001°53'1016.3
2014-Oct-18 18:32N 38°52' E 002°01'1716.5
2014-Oct-18 17:30N 39°06' E 002°13'1616.6
2014-Oct-18 16:33N 39°18' E 002°26'1716.9
2014-Oct-18 15:33N 39°32' E 002°38'1 1.0
2014-Oct-18 14:32N 39°33' E 002°38'0 0.0
2014-Oct-18 13:31N 39°33' E 002°38'0 0.0
2014-Oct-18 12:31N 39°33' E 002°38'0 0.0
2014-Oct-18 11:31N 39°33' E 002°38'0 0.0
2014-Oct-18 10:31N 39°33' E 002°38'0 0.0
2014-Oct-18 08:19N 39°33' E 002°38'0 0.0
2014-Oct-18 07:31N 39°33' E 002°38'1313.4
2014-Oct-18 06:32N 39°21' E 002°45'1313.5
2014-Oct-18 05:33N 39°33' E 002°38'10 9.8
2014-Oct-18 04:33N 39°24' E 002°42'1716.7
2014-Oct-18 03:33N 39°15' E 002°60'1312.8
2014-Oct-18 02:31N 39°14' E 003°17'1212.9
2014-Oct-18 01:33N 39°19' E 003°32'1312.8
2014-Oct-18 00:33N 39°24' E 003°48'1412.9
2014-Oct-17 23:29N 39°29' E 004°04'1212.7
2014-Oct-17 22:32N 39°33' E 004°19'1612.3
2014-Oct-17 21:13N 39°42' E 004°36'812.5
2014-Oct-17 20:33N 39°48' E 004°43'5712.7
2014-Oct-17 16:04N 40°30' E 005°35'22312.0
2014-Oct-16 21:33N 43°04' E 009°11'1212.2
2014-Oct-16 20:33N 43°09' E 009°26'1212.1
2014-Oct-16 19:33N 43°14' E 009°41'1312.7
2014-Oct-16 18:33N 43°19' E 009°57'1212.2
2014-Oct-16 17:33N 43°28' E 010°09'9 8.4
2014-Oct-16 16:32N 43°33' E 010°18'0 0.0
2014-Oct-16 15:32N 43°33' E 010°18'0 0.0
2014-Oct-16 14:32N 43°33' E 010°18'0 0.0
2014-Oct-16 13:32N 43°33' E 010°18'0 0.0
2014-Oct-16 12:32N 43°33' E 010°18'0 0.0
2014-Oct-16 11:32N 43°33' E 010°18'0 0.0
2014-Oct-16 10:32N 43°33' E 010°18'0 0.0
2014-Oct-16 09:29N 43°33' E 010°18'0 0.0
2014-Oct-16 08:32N 43°33' E 010°18'0 0.0
2014-Oct-16 07:33N 43°33' E 010°18'0 0.0
2014-Oct-16 06:33N 43°33' E 010°18'0 0.2
2014-Oct-16 05:34N 43°33' E 010°18'7 6.6
2014-Oct-16 04:33N 43°30' E 010°10'1212.3
2014-Oct-16 03:33N 43°33' E 009°53'1312.5
2014-Oct-16 02:33N 43°32' E 009°36'1212.2
2014-Oct-16 01:33N 43°32' E 009°19'1212.1
2014-Oct-16 00:33N 43°31' E 009°02'1211.9
2014-Oct-15 23:33N 43°30' E 008°46'1212.0
2014-Oct-15 22:33N 43°30' E 008°29'1412.2
2014-Oct-15 21:26N 43°29' E 008°10'1312.4
2014-Oct-15 20:23N 43°28' E 007°52'1112.5
2014-Oct-15 19:28N 43°27' E 007°37'1112.3
2014-Oct-15 18:33N 43°24' E 007°21'1212.0
2014-Oct-15 17:33N 43°22' E 007°05'174 8.1
2014-Oct-14 20:10N 41°50' E 003°45'1217.3
2014-Oct-14 19:29N 41°45' E 003°31'1817.6
2014-Oct-14 18:28N 41°36' E 003°09'1717.6
2014-Oct-14 17:28N 41°28' E 002°49'1918.1
2014-Oct-14 16:25N 41°19' E 002°26'12 3.7
2014-Oct-14 13:09N 41°21' E 002°11'0 0.0
2014-Oct-14 06:26N 41°21' E 002°10'7 7.6
2014-Oct-14 05:27N 41°14' E 002°10'1415.4
2014-Oct-14 04:33N 41°02' E 002°02'1515.2
2014-Oct-14 03:33N 40°48' E 001°53'1515.1
2014-Oct-14 02:33N 40°35' E 001°43'1515.0
2014-Oct-14 01:33N 40°21' E 001°35'1615.5
2014-Oct-14 00:33N 40°08' E 001°25'1615.7
2014-Oct-13 23:33N 39°54' E 001°16'13115.7
2014-Oct-13 15:10N 37°59' W 000°07'1015.7
2014-Oct-13 14:33N 37°51' W 000°13'1615.7
2014-Oct-13 13:33N 37°38' W 000°25'1616.1
2014-Oct-13 12:33N 37°27' W 000°39'1716.2
2014-Oct-13 11:31N 37°16' W 000°55'35510.6
2014-Oct-12 02:04N 36°31' W 008°15'1122.2
2014-Oct-12 01:33N 36°31' W 008°29'9218.4
2014-Oct-11 20:32N 37°40' W 009°47'2221.6
2014-Oct-11 19:33N 38°01' W 009°54'  
Track history (hours):
 
Tides and Currents Weather Stations Pressure Air Temp Water Temp Dewpoint Dewpoint Depression Visibility Wind Speed Wind Dir Waves Ship Positions

Oriana (Bermuda)

Last reported at 2014-Oct-21 17:07 UTC. Time now 2014-Oct-22 13:47 UTC.
Position N 42°08' W 009°49'.

Length 261 m; beam 32.2 m; draft 8.2 m.

Type: Ship. MMSI: 310529000.

Date/timePositionNaut miles runAvg speedWind from/ knotsBaromVisibWave heightAir tempDewpointWater temp
2014-Oct-21 17:07N 42°08' W 009°49'15618.0
2014-Oct-21 08:29N 39°32' W 009°51'1617.2
2014-Oct-21 07:32N 39°16' W 009°51'1716.8
2014-Oct-21 06:33N 38°59' W 009°51'1717.1
2014-Oct-21 05:33N 38°42' W 009°52'1817.8
2014-Oct-21 04:32N 38°25' W 009°48'1818.1
2014-Oct-21 03:33N 38°07' W 009°43'1817.7
2014-Oct-21 02:33N 37°50' W 009°37'1817.7
2014-Oct-21 01:33N 37°33' W 009°31'1818.0
2014-Oct-21 00:33N 37°16' W 009°25'1717.4
2014-Oct-20 23:33N 36°59' W 009°20'3215.9
2014-Oct-20 21:33N 36°40' W 008°48'3617.3
2014-Oct-20 19:28N 36°28' W 008°06'1617.9
2014-Oct-20 18:34N 36°22' W 007°47'1818.2
2014-Oct-20 17:34N 36°16' W 007°25'2318.1
2014-Oct-20 16:18N 36°08' W 006°59'1317.7
2014-Oct-20 15:33N 36°04' W 006°43'1817.7
2014-Oct-20 14:34N 35°59' W 006°22'3717.4
2014-Oct-20 12:25N 35°58' W 005°36'1416.4
2014-Oct-20 11:34N 36°06' W 005°23'2 2.3
2014-Oct-20 10:30N 36°09' W 005°22'0 0.0
2014-Oct-20 09:30N 36°09' W 005°22'0 0.0
2014-Oct-20 07:33N 36°09' W 005°22'0 0.0
2014-Oct-20 06:33N 36°09' W 005°22'0 0.0
2014-Oct-20 05:33N 36°09' W 005°22'2 2.5
2014-Oct-20 04:34N 36°06' W 005°22'15016.5
2014-Oct-19 19:28N 36°26' W 002°18'1516.1
2014-Oct-19 18:33N 36°34' W 002°03'2417.1
2014-Oct-19 17:08N 36°53' W 001°43'1017.1
2014-Oct-19 16:34N 37°00' W 001°35'3917.4
2014-Oct-19 14:18N 37°30' W 001°03'6 0.7
2014-Oct-19 05:18N 37°36' W 000°59'7 6.9
2014-Oct-19 04:15N 37°32' W 000°51'1217.0
2014-Oct-19 03:34N 37°33' W 000°36'1717.1
2014-Oct-19 02:33N 37°42' W 000°18'1716.7
2014-Oct-19 01:32N 37°51' E 000°01'1616.3
2014-Oct-19 00:33N 37°58' E 000°19'1616.2
2014-Oct-18 23:33N 38°05' E 000°37'1716.1
2014-Oct-18 22:29N 38°13' E 000°56'1516.0
2014-Oct-18 21:32N 38°20' E 001°14'2016.7
2014-Oct-18 20:21N 38°31' E 001°35'1915.8
2014-Oct-18 19:08N 38°44' E 001°53'1016.3
2014-Oct-18 18:32N 38°52' E 002°01'1716.5
2014-Oct-18 17:30N 39°06' E 002°13'1616.6
2014-Oct-18 16:33N 39°18' E 002°26'1716.9
2014-Oct-18 15:33N 39°32' E 002°38'1 1.0
2014-Oct-18 14:32N 39°33' E 002°38'0 0.0
2014-Oct-18 13:31N 39°33' E 002°38'0 0.0
2014-Oct-18 12:31N 39°33' E 002°38'0 0.0
2014-Oct-18 11:31N 39°33' E 002°38'0 0.0
2014-Oct-18 10:31N 39°33' E 002°38'0 0.0
2014-Oct-18 08:19N 39°33' E 002°38'0 0.0
2014-Oct-18 07:31N 39°33' E 002°38'1313.4
2014-Oct-18 06:32N 39°21' E 002°45'1313.5
2014-Oct-18 05:33N 39°33' E 002°38'10 9.8
2014-Oct-18 04:33N 39°24' E 002°42'1716.7
2014-Oct-18 03:33N 39°15' E 002°60'1312.8
2014-Oct-18 02:31N 39°14' E 003°17'1212.9
2014-Oct-18 01:33N 39°19' E 003°32'1312.8
2014-Oct-18 00:33N 39°24' E 003°48'1412.9
2014-Oct-17 23:29N 39°29' E 004°04'1212.7
2014-Oct-17 22:32N 39°33' E 004°19'1612.3
2014-Oct-17 21:13N 39°42' E 004°36'812.5
2014-Oct-17 20:33N 39°48' E 004°43'5712.7
2014-Oct-17 16:04N 40°30' E 005°35'22312.0
2014-Oct-16 21:33N 43°04' E 009°11'1212.2
2014-Oct-16 20:33N 43°09' E 009°26'1212.1
2014-Oct-16 19:33N 43°14' E 009°41'1312.7
2014-Oct-16 18:33N 43°19' E 009°57'1212.2
2014-Oct-16 17:33N 43°28' E 010°09'9 8.4
2014-Oct-16 16:32N 43°33' E 010°18'0 0.0
2014-Oct-16 15:32N 43°33' E 010°18'0 0.0
2014-Oct-16 14:32N 43°33' E 010°18'0 0.0
2014-Oct-16 13:32N 43°33' E 010°18'0 0.0
2014-Oct-16 12:32N 43°33' E 010°18'0 0.0
2014-Oct-16 11:32N 43°33' E 010°18'0 0.0
2014-Oct-16 10:32N 43°33' E 010°18'0 0.0
2014-Oct-16 09:29N 43°33' E 010°18'0 0.0
2014-Oct-16 08:32N 43°33' E 010°18'0 0.0
2014-Oct-16 07:33N 43°33' E 010°18'0 0.0
2014-Oct-16 06:33N 43°33' E 010°18'0 0.2
2014-Oct-16 05:34N 43°33' E 010°18'7 6.6
2014-Oct-16 04:33N 43°30' E 010°10'1212.3
2014-Oct-16 03:33N 43°33' E 009°53'1312.5
2014-Oct-16 02:33N 43°32' E 009°36'1212.2
2014-Oct-16 01:33N 43°32' E 009°19'1212.1
2014-Oct-16 00:33N 43°31' E 009°02'1211.9
2014-Oct-15 23:33N 43°30' E 008°46'1212.0
2014-Oct-15 22:33N 43°30' E 008°29'1412.2
2014-Oct-15 21:26N 43°29' E 008°10'1312.4
2014-Oct-15 20:23N 43°28' E 007°52'1112.5
2014-Oct-15 19:28N 43°27' E 007°37'1112.3
2014-Oct-15 18:33N 43°24' E 007°21'1212.0
2014-Oct-15 17:33N 43°22' E 007°05'174 8.1
2014-Oct-14 20:10N 41°50' E 003°45'1217.3
2014-Oct-14 19:29N 41°45' E 003°31'1817.6
2014-Oct-14 18:28N 41°36' E 003°09'1717.6
2014-Oct-14 17:28N 41°28' E 002°49'1918.1
2014-Oct-14 16:25N 41°19' E 002°26'12 3.7
2014-Oct-14 13:09N 41°21' E 002°11'0 0.0
2014-Oct-14 06:26N 41°21' E 002°10'7 7.6
2014-Oct-14 05:27N 41°14' E 002°10'1415.4
2014-Oct-14 04:33N 41°02' E 002°02'1515.2
2014-Oct-14 03:33N 40°48' E 001°53'1515.1
2014-Oct-14 02:33N 40°35' E 001°43'1515.0
2014-Oct-14 01:33N 40°21' E 001°35'1615.5
2014-Oct-14 00:33N 40°08' E 001°25'1615.7
2014-Oct-13 23:33N 39°54' E 001°16'13115.7
2014-Oct-13 15:10N 37°59' W 000°07'1015.7
2014-Oct-13 14:33N 37°51' W 000°13'1615.7
2014-Oct-13 13:33N 37°38' W 000°25'1616.1
2014-Oct-13 12:33N 37°27' W 000°39'1716.2
2014-Oct-13 11:31N 37°16' W 000°55'35510.6
2014-Oct-12 02:04N 36°31' W 008°15'1122.2
2014-Oct-12 01:33N 36°31' W 008°29'9218.4
2014-Oct-11 20:32N 37°40' W 009°47'2221.6
2014-Oct-11 19:33N 38°01' W 009°54'  

Dump ship's entire track history